sensor_id;sensor_type;location;lat;lon;timestamp;temperature;humidity
24103;DHT22;12278;53.058;9.028;2024-03-08T00:02:12;1.70;99.90
24103;DHT22;12278;53.058;9.028;2024-03-08T00:06:13;1.70;99.90
24103;DHT22;12278;53.058;9.028;2024-03-08T00:10:13;1.60;99.90
24103;DHT22;12278;53.058;9.028;2024-03-08T00:14:14;1.60;99.90
24103;DHT22;12278;53.058;9.028;2024-03-08T00:18:15;1.60;99.90
24103;DHT22;12278;53.058;9.028;2024-03-08T00:22:15;1.60;99.90
24103;DHT22;12278;53.058;9.028;2024-03-08T00:26:16;1.60;99.90
24103;DHT22;12278;53.058;9.028;2024-03-08T00:30:17;1.60;99.90
24103;DHT22;12278;53.058;9.028;2024-03-08T00:34:17;1.60;99.90
24103;DHT22;12278;53.058;9.028;2024-03-08T00:38:18;1.60;99.90
24103;DHT22;12278;53.058;9.028;2024-03-08T00:42:19;1.50;99.90
24103;DHT22;12278;53.058;9.028;2024-03-08T00:46:20;1.50;99.90
24103;DHT22;12278;53.058;9.028;2024-03-08T00:50:20;1.50;99.90
24103;DHT22;12278;53.058;9.028;2024-03-08T00:54:21;1.40;99.90
24103;DHT22;12278;53.058;9.028;2024-03-08T00:58:21;1.40;99.90
24103;DHT22;12278;53.058;9.028;2024-03-08T01:02:24;1.40;99.90
24103;DHT22;12278;53.058;9.028;2024-03-08T01:06:24;1.40;99.90
24103;DHT22;12278;53.058;9.028;2024-03-08T01:10:25;1.40;99.90
24103;DHT22;12278;53.058;9.028;2024-03-08T01:14:25;1.50;99.90
24103;DHT22;12278;53.058;9.028;2024-03-08T01:18:26;1.50;99.90
24103;DHT22;12278;53.058;9.028;2024-03-08T01:22:26;1.50;99.90
24103;DHT22;12278;53.058;9.028;2024-03-08T01:26:28;1.40;99.90
24103;DHT22;12278;53.058;9.028;2024-03-08T01:30:29;1.40;99.90
24103;DHT22;12278;53.058;9.028;2024-03-08T01:34:30;1.40;99.90
24103;DHT22;12278;53.058;9.028;2024-03-08T01:38:30;1.40;99.90
24103;DHT22;12278;53.058;9.028;2024-03-08T01:42:31;1.40;99.90
24103;DHT22;12278;53.058;9.028;2024-03-08T01:46:31;1.40;99.90
24103;DHT22;12278;53.058;9.028;2024-03-08T01:50:32;1.30;99.90
24103;DHT22;12278;53.058;9.028;2024-03-08T01:54:32;1.30;99.90
24103;DHT22;12278;53.058;9.028;2024-03-08T01:58:33;1.30;99.90
24103;DHT22;12278;53.058;9.028;2024-03-08T02:02:34;1.30;99.90
24103;DHT22;12278;53.058;9.028;2024-03-08T02:06:35;1.30;99.90
24103;DHT22;12278;53.058;9.028;2024-03-08T02:10:35;1.30;99.90
24103;DHT22;12278;53.058;9.028;2024-03-08T02:14:36;1.30;99.90
24103;DHT22;12278;53.058;9.028;2024-03-08T02:18:37;1.30;99.90
24103;DHT22;12278;53.058;9.028;2024-03-08T02:22:39;1.30;99.90
24103;DHT22;12278;53.058;9.028;2024-03-08T02:26:40;1.20;99.90
24103;DHT22;12278;53.058;9.028;2024-03-08T02:30:42;1.20;99.90
24103;DHT22;12278;53.058;9.028;2024-03-08T02:34:43;1.20;99.90
24103;DHT22;12278;53.058;9.028;2024-03-08T02:38:43;1.20;99.90
24103;DHT22;12278;53.058;9.028;2024-03-08T02:42:44;1.20;99.90
24103;DHT22;12278;53.058;9.028;2024-03-08T02:46:44;1.10;99.90
24103;DHT22;12278;53.058;9.028;2024-03-08T02:50:45;1.10;99.90
24103;DHT22;12278;53.058;9.028;2024-03-08T02:54:47;1.10;99.90
24103;DHT22;12278;53.058;9.028;2024-03-08T02:58:48;1.10;99.90
24103;DHT22;12278;53.058;9.028;2024-03-08T03:02:49;1.10;99.90
24103;DHT22;12278;53.058;9.028;2024-03-08T03:06:54;1.10;99.90
24103;DHT22;12278;53.058;9.028;2024-03-08T03:10:55;1.00;99.90
24103;DHT22;12278;53.058;9.028;2024-03-08T03:14:57;1.00;99.90
24103;DHT22;12278;53.058;9.028;2024-03-08T03:18:57;1.00;99.90
24103;DHT22;12278;53.058;9.028;2024-03-08T03:22:59;1.00;99.90
24103;DHT22;12278;53.058;9.028;2024-03-08T03:27:02;1.00;99.90
24103;DHT22;12278;53.058;9.028;2024-03-08T03:31:10;1.00;99.90
24103;DHT22;12278;53.058;9.028;2024-03-08T03:35:15;1.00;99.90
24103;DHT22;12278;53.058;9.028;2024-03-08T03:39:15;1.00;99.90
24103;DHT22;12278;53.058;9.028;2024-03-08T03:43:20;1.00;99.90
24103;DHT22;12278;53.058;9.028;2024-03-08T03:47:20;1.00;99.90
24103;DHT22;12278;53.058;9.028;2024-03-08T03:51:21;0.90;99.90
24103;DHT22;12278;53.058;9.028;2024-03-08T03:55:21;0.90;99.90
24103;DHT22;12278;53.058;9.028;2024-03-08T03:59:22;0.90;99.90
24103;DHT22;12278;53.058;9.028;2024-03-08T04:03:22;0.80;99.90
24103;DHT22;12278;53.058;9.028;2024-03-08T04:07:23;0.80;99.90
24103;DHT22;12278;53.058;9.028;2024-03-08T04:11:23;0.80;99.90
24103;DHT22;12278;53.058;9.028;2024-03-08T04:15:24;0.80;99.90
24103;DHT22;12278;53.058;9.028;2024-03-08T04:19:25;0.80;99.90
24103;DHT22;12278;53.058;9.028;2024-03-08T04:23:27;0.80;99.90
24103;DHT22;12278;53.058;9.028;2024-03-08T04:27:28;0.70;99.90
24103;DHT22;12278;53.058;9.028;2024-03-08T04:31:29;0.70;99.90
24103;DHT22;12278;53.058;9.028;2024-03-08T04:35:31;0.70;99.90
24103;DHT22;12278;53.058;9.028;2024-03-08T04:39:31;0.70;99.90
24103;DHT22;12278;53.058;9.028;2024-03-08T04:43:33;0.80;99.90
24103;DHT22;12278;53.058;9.028;2024-03-08T04:47:33;0.80;99.90
24103;DHT22;12278;53.058;9.028;2024-03-08T04:51:34;0.80;99.90
24103;DHT22;12278;53.058;9.028;2024-03-08T04:55:34;0.70;99.90
24103;DHT22;12278;53.058;9.028;2024-03-08T04:59:35;0.70;99.90
24103;DHT22;12278;53.058;9.028;2024-03-08T05:03:36;0.70;99.90
24103;DHT22;12278;53.058;9.028;2024-03-08T05:07:36;0.70;99.90
24103;DHT22;12278;53.058;9.028;2024-03-08T05:11:38;0.60;99.90
24103;DHT22;12278;53.058;9.028;2024-03-08T05:15:38;0.50;99.90
24103;DHT22;12278;53.058;9.028;2024-03-08T05:19:39;0.50;99.90
24103;DHT22;12278;53.058;9.028;2024-03-08T05:23:40;0.50;99.90
24103;DHT22;12278;53.058;9.028;2024-03-08T05:27:40;0.40;99.90
24103;DHT22;12278;53.058;9.028;2024-03-08T05:31:47;0.40;99.90
24103;DHT22;12278;53.058;9.028;2024-03-08T05:35:58;0.40;99.90
24103;DHT22;12278;53.058;9.028;2024-03-08T05:39:59;0.40;99.90
24103;DHT22;12278;53.058;9.028;2024-03-08T05:44:00;0.50;99.90
24103;DHT22;12278;53.058;9.028;2024-03-08T05:48:00;0.40;99.90
24103;DHT22;12278;53.058;9.028;2024-03-08T05:52:01;0.40;99.90
24103;DHT22;12278;53.058;9.028;2024-03-08T05:56:02;0.30;99.90
24103;DHT22;12278;53.058;9.028;2024-03-08T06:00:03;0.30;99.90
24103;DHT22;12278;53.058;9.028;2024-03-08T06:04:04;0.30;99.90
24103;DHT22;12278;53.058;9.028;2024-03-08T06:08:05;0.30;99.90
24103;DHT22;12278;53.058;9.028;2024-03-08T06:12:07;0.40;99.90
24103;DHT22;12278;53.058;9.028;2024-03-08T06:16:11;0.50;99.90
24103;DHT22;12278;53.058;9.028;2024-03-08T06:20:11;0.50;99.90
24103;DHT22;12278;53.058;9.028;2024-03-08T06:24:13;0.60;99.90
24103;DHT22;12278;53.058;9.028;2024-03-08T06:28:15;0.60;99.90
24103;DHT22;12278;53.058;9.028;2024-03-08T06:32:15;0.60;99.90
24103;DHT22;12278;53.058;9.028;2024-03-08T06:36:16;0.70;99.90
24103;DHT22;12278;53.058;9.028;2024-03-08T06:40:19;1.00;99.90
24103;DHT22;12278;53.058;9.028;2024-03-08T06:44:19;1.20;99.90
24103;DHT22;12278;53.058;9.028;2024-03-08T06:48:22;1.40;99.90
24103;DHT22;12278;53.058;9.028;2024-03-08T06:52:22;1.70;99.90
24103;DHT22;12278;53.058;9.028;2024-03-08T06:56:23;2.00;99.90
24103;DHT22;12278;53.058;9.028;2024-03-08T07:00:23;2.20;99.90
24103;DHT22;12278;53.058;9.028;2024-03-08T07:04:27;2.50;99.90
24103;DHT22;12278;53.058;9.028;2024-03-08T07:08:30;2.80;99.90
24103;DHT22;12278;53.058;9.028;2024-03-08T07:12:30;3.20;99.90
24103;DHT22;12278;53.058;9.028;2024-03-08T07:16:30;3.30;99.90
24103;DHT22;12278;53.058;9.028;2024-03-08T07:20:31;3.40;99.90
24103;DHT22;12278;53.058;9.028;2024-03-08T07:24:31;3.50;99.90
24103;DHT22;12278;53.058;9.028;2024-03-08T07:28:38;3.80;99.90
24103;DHT22;12278;53.058;9.028;2024-03-08T07:32:38;4.00;99.90
24103;DHT22;12278;53.058;9.028;2024-03-08T07:36:39;4.00;99.90
24103;DHT22;12278;53.058;9.028;2024-03-08T07:40:40;4.50;99.90
24103;DHT22;12278;53.058;9.028;2024-03-08T07:44:41;4.70;99.90
24103;DHT22;12278;53.058;9.028;2024-03-08T07:48:42;4.90;99.90
24103;DHT22;12278;53.058;9.028;2024-03-08T07:52:43;4.80;99.90
24103;DHT22;12278;53.058;9.028;2024-03-08T07:56:43;4.90;99.90
24103;DHT22;12278;53.058;9.028;2024-03-08T08:00:44;4.70;99.90
24103;DHT22;12278;53.058;9.028;2024-03-08T08:04:44;4.90;99.90
24103;DHT22;12278;53.058;9.028;2024-03-08T08:08:47;5.20;99.90
24103;DHT22;12278;53.058;9.028;2024-03-08T08:12:48;5.30;99.90
24103;DHT22;12278;53.058;9.028;2024-03-08T08:16:49;5.50;99.90
24103;DHT22;12278;53.058;9.028;2024-03-08T08:20:52;6.20;99.90
24103;DHT22;12278;53.058;9.028;2024-03-08T08:24:53;7.00;99.90
24103;DHT22;12278;53.058;9.028;2024-03-08T08:28:53;7.50;99.90
24103;DHT22;12278;53.058;9.028;2024-03-08T08:32:54;7.70;99.90
24103;DHT22;12278;53.058;9.028;2024-03-08T08:36:55;7.70;99.90
24103;DHT22;12278;53.058;9.028;2024-03-08T08:40:56;7.50;99.90
24103;DHT22;12278;53.058;9.028;2024-03-08T08:44:56;7.10;99.90
24103;DHT22;12278;53.058;9.028;2024-03-08T08:48:58;7.00;99.90
24103;DHT22;12278;53.058;9.028;2024-03-08T08:52:59;7.00;99.90
24103;DHT22;12278;53.058;9.028;2024-03-08T08:56:59;6.90;99.90
24103;DHT22;12278;53.058;9.028;2024-03-08T09:01:01;7.40;99.90
24103;DHT22;12278;53.058;9.028;2024-03-08T09:05:01;7.70;99.90
24103;DHT22;12278;53.058;9.028;2024-03-08T09:09:02;7.70;99.90
24103;DHT22;12278;53.058;9.028;2024-03-08T09:13:04;7.70;99.90
24103;DHT22;12278;53.058;9.028;2024-03-08T09:17:04;7.70;99.90
24103;DHT22;12278;53.058;9.028;2024-03-08T09:21:05;7.80;99.90
24103;DHT22;12278;53.058;9.028;2024-03-08T09:25:05;7.90;99.90
24103;DHT22;12278;53.058;9.028;2024-03-08T09:29:07;8.20;99.90
24103;DHT22;12278;53.058;9.028;2024-03-08T09:33:08;8.60;99.90
24103;DHT22;12278;53.058;9.028;2024-03-08T09:37:09;8.80;99.90
24103;DHT22;12278;53.058;9.028;2024-03-08T09:41:10;8.70;99.90
24103;DHT22;12278;53.058;9.028;2024-03-08T09:45:11;8.80;99.90
24103;DHT22;12278;53.058;9.028;2024-03-08T09:49:12;8.50;99.90
24103;DHT22;12278;53.058;9.028;2024-03-08T09:53:12;9.00;99.90
24103;DHT22;12278;53.058;9.028;2024-03-08T09:57:13;9.00;99.90
24103;DHT22;12278;53.058;9.028;2024-03-08T10:01:13;8.90;99.90
24103;DHT22;12278;53.058;9.028;2024-03-08T10:05:14;9.20;99.90
24103;DHT22;12278;53.058;9.028;2024-03-08T10:09:14;9.40;99.90
24103;DHT22;12278;53.058;9.028;2024-03-08T10:13:16;9.20;99.90
24103;DHT22;12278;53.058;9.028;2024-03-08T10:17:17;9.70;99.90
24103;DHT22;12278;53.058;9.028;2024-03-08T10:21:20;9.60;99.90
24103;DHT22;12278;53.058;9.028;2024-03-08T10:25:20;9.70;99.50
24103;DHT22;12278;53.058;9.028;2024-03-08T10:29:21;9.80;99.90
24103;DHT22;12278;53.058;9.028;2024-03-08T10:33:21;9.90;99.70
24103;DHT22;12278;53.058;9.028;2024-03-08T10:37:22;10.10;99.00
24103;DHT22;12278;53.058;9.028;2024-03-08T10:41:24;10.20;99.70
24103;DHT22;12278;53.058;9.028;2024-03-08T10:49:26;10.40;98.30
24103;DHT22;12278;53.058;9.028;2024-03-08T10:53:30;10.50;97.80
24103;DHT22;12278;53.058;9.028;2024-03-08T10:57:31;10.80;97.50
24103;DHT22;12278;53.058;9.028;2024-03-08T11:01:31;10.80;96.80
24103;DHT22;12278;53.058;9.028;2024-03-08T11:05:38;10.80;98.00
24103;DHT22;12278;53.058;9.028;2024-03-08T11:09:39;10.40;97.00
24103;DHT22;12278;53.058;9.028;2024-03-08T11:13:42;10.90;97.00
24103;DHT22;12278;53.058;9.028;2024-03-08T11:17:49;10.80;96.50
24103;DHT22;12278;53.058;9.028;2024-03-08T11:22:00;11.10;97.00
24103;DHT22;12278;53.058;9.028;2024-03-08T11:26:00;11.20;96.60
24103;DHT22;12278;53.058;9.028;2024-03-08T11:30:02;11.40;95.30
24103;DHT22;12278;53.058;9.028;2024-03-08T11:34:15;11.40;95.10
24103;DHT22;12278;53.058;9.028;2024-03-08T11:38:16;11.60;94.10
24103;DHT22;12278;53.058;9.028;2024-03-08T11:42:17;11.60;93.40
24103;DHT22;12278;53.058;9.028;2024-03-08T11:46:19;12.10;93.70
24103;DHT22;12278;53.058;9.028;2024-03-08T11:50:20;11.90;91.40
24103;DHT22;12278;53.058;9.028;2024-03-08T11:54:21;12.00;92.50
24103;DHT22;12278;53.058;9.028;2024-03-08T11:58:21;12.20;92.00
24103;DHT22;12278;53.058;9.028;2024-03-08T12:02:22;12.40;91.30
24103;DHT22;12278;53.058;9.028;2024-03-08T12:06:23;12.60;92.30
24103;DHT22;12278;53.058;9.028;2024-03-08T12:10:23;12.80;90.00
24103;DHT22;12278;53.058;9.028;2024-03-08T12:14:25;12.60;87.80
24103;DHT22;12278;53.058;9.028;2024-03-08T12:18:26;12.70;88.90
24103;DHT22;12278;53.058;9.028;2024-03-08T12:22:30;12.20;90.20
24103;DHT22;12278;53.058;9.028;2024-03-08T12:26:30;12.40;90.00
24103;DHT22;12278;53.058;9.028;2024-03-08T12:30:32;12.00;89.70
24103;DHT22;12278;53.058;9.028;2024-03-08T12:34:33;12.50;88.60
24103;DHT22;12278;53.058;9.028;2024-03-08T12:38:35;12.30;88.90
24103;DHT22;12278;53.058;9.028;2024-03-08T12:42:37;12.50;90.20
24103;DHT22;12278;53.058;9.028;2024-03-08T12:46:39;12.30;90.80
24103;DHT22;12278;53.058;9.028;2024-03-08T12:50:45;12.50;89.80
24103;DHT22;12278;53.058;9.028;2024-03-08T12:54:47;12.80;90.00
24103;DHT22;12278;53.058;9.028;2024-03-08T12:58:49;12.90;90.10
24103;DHT22;12278;53.058;9.028;2024-03-08T13:02:50;12.70;90.20
24103;DHT22;12278;53.058;9.028;2024-03-08T13:06:51;13.00;89.20
24103;DHT22;12278;53.058;9.028;2024-03-08T13:10:52;12.90;89.20
24103;DHT22;12278;53.058;9.028;2024-03-08T13:14:52;13.00;90.30
24103;DHT22;12278;53.058;9.028;2024-03-08T13:18:56;13.60;89.20
24103;DHT22;12278;53.058;9.028;2024-03-08T13:22:57;13.50;87.10
24103;DHT22;12278;53.058;9.028;2024-03-08T13:27:00;13.30;89.10
24103;DHT22;12278;53.058;9.028;2024-03-08T13:31:00;13.40;85.40
24103;DHT22;12278;53.058;9.028;2024-03-08T13:35:01;13.50;87.30
24103;DHT22;12278;53.058;9.028;2024-03-08T13:39:02;13.80;84.20
24103;DHT22;12278;53.058;9.028;2024-03-08T13:43:10;14.10;87.40
24103;DHT22;12278;53.058;9.028;2024-03-08T13:47:17;14.40;84.80
24103;DHT22;12278;53.058;9.028;2024-03-08T13:51:18;14.50;83.50
24103;DHT22;12278;53.058;9.028;2024-03-08T13:55:18;14.40;83.10
24103;DHT22;12278;53.058;9.028;2024-03-08T13:59:19;14.70;81.40
24103;DHT22;12278;53.058;9.028;2024-03-08T14:03:22;15.00;82.40
24103;DHT22;12278;53.058;9.028;2024-03-08T14:07:24;15.70;80.90
24103;DHT22;12278;53.058;9.028;2024-03-08T14:11:25;15.80;78.80
24103;DHT22;12278;53.058;9.028;2024-03-08T14:15:25;16.00;78.90
24103;DHT22;12278;53.058;9.028;2024-03-08T14:19:26;16.20;78.90
24103;DHT22;12278;53.058;9.028;2024-03-08T14:23:27;16.30;77.00
24103;DHT22;12278;53.058;9.028;2024-03-08T14:27:28;16.50;75.30
24103;DHT22;12278;53.058;9.028;2024-03-08T14:31:28;16.80;71.80
24103;DHT22;12278;53.058;9.028;2024-03-08T14:35:30;16.90;73.30
24103;DHT22;12278;53.058;9.028;2024-03-08T14:39:31;16.90;72.50
24103;DHT22;12278;53.058;9.028;2024-03-08T14:43:33;16.20;71.10
24103;DHT22;12278;53.058;9.028;2024-03-08T14:47:34;16.80;71.50
24103;DHT22;12278;53.058;9.028;2024-03-08T14:51:34;16.50;71.30
24103;DHT22;12278;53.058;9.028;2024-03-08T14:55:35;16.20;70.10
24103;DHT22;12278;53.058;9.028;2024-03-08T14:59:36;16.30;72.00
24103;DHT22;12278;53.058;9.028;2024-03-08T15:03:38;16.10;69.10
24103;DHT22;12278;53.058;9.028;2024-03-08T15:07:38;15.90;71.40
24103;DHT22;12278;53.058;9.028;2024-03-08T15:11:39;16.20;69.60
24103;DHT22;12278;53.058;9.028;2024-03-08T15:15:40;16.60;68.10
24103;DHT22;12278;53.058;9.028;2024-03-08T15:19:43;16.10;70.30
24103;DHT22;12278;53.058;9.028;2024-03-08T15:23:43;15.70;69.80
24103;DHT22;12278;53.058;9.028;2024-03-08T15:27:49;15.40;71.90
24103;DHT22;12278;53.058;9.028;2024-03-08T15:31:50;15.30;71.50
24103;DHT22;12278;53.058;9.028;2024-03-08T15:35:54;15.40;71.00
24103;DHT22;12278;53.058;9.028;2024-03-08T15:39:59;15.10;70.40
24103;DHT22;12278;53.058;9.028;2024-03-08T15:44:00;14.50;72.50
24103;DHT22;12278;53.058;9.028;2024-03-08T15:48:00;13.90;75.60
24103;DHT22;12278;53.058;9.028;2024-03-08T15:52:05;14.20;74.70
24103;DHT22;12278;53.058;9.028;2024-03-08T15:56:06;13.60;75.70
24103;DHT22;12278;53.058;9.028;2024-03-08T16:00:08;13.20;75.80
24103;DHT22;12278;53.058;9.028;2024-03-08T16:04:18;12.80;76.60
24103;DHT22;12278;53.058;9.028;2024-03-08T16:08:20;11.90;79.30
24103;DHT22;12278;53.058;9.028;2024-03-08T16:12:21;10.80;83.90
24103;DHT22;12278;53.058;9.028;2024-03-08T16:16:23;10.10;90.00
24103;DHT22;12278;53.058;9.028;2024-03-08T16:20:23;9.60;91.80
24103;DHT22;12278;53.058;9.028;2024-03-08T16:24:25;9.40;93.90
24103;DHT22;12278;53.058;9.028;2024-03-08T16:28:27;9.20;94.70
24103;DHT22;12278;53.058;9.028;2024-03-08T16:32:28;9.10;95.90
24103;DHT22;12278;53.058;9.028;2024-03-08T16:36:28;9.00;96.50
24103;DHT22;12278;53.058;9.028;2024-03-08T16:40:29;8.90;97.50
24103;DHT22;12278;53.058;9.028;2024-03-08T16:44:30;8.70;97.60
24103;DHT22;12278;53.058;9.028;2024-03-08T16:48:30;8.50;97.70
24103;DHT22;12278;53.058;9.028;2024-03-08T16:52:31;8.40;98.20
24103;DHT22;12278;53.058;9.028;2024-03-08T16:56:36;8.40;98.40
24103;DHT22;12278;53.058;9.028;2024-03-08T17:00:38;8.20;98.10
24103;DHT22;12278;53.058;9.028;2024-03-08T17:04:38;8.10;99.20
24103;DHT22;12278;53.058;9.028;2024-03-08T17:08:39;8.00;99.20
24103;DHT22;12278;53.058;9.028;2024-03-08T17:12:43;7.90;99.60
24103;DHT22;12278;53.058;9.028;2024-03-08T17:16:44;7.80;99.90
24103;DHT22;12278;53.058;9.028;2024-03-08T17:20:44;7.70;99.90
24103;DHT22;12278;53.058;9.028;2024-03-08T17:24:45;7.60;99.90
24103;DHT22;12278;53.058;9.028;2024-03-08T17:28:46;7.60;99.90
24103;DHT22;12278;53.058;9.028;2024-03-08T17:32:54;7.50;99.90
24103;DHT22;12278;53.058;9.028;2024-03-08T17:36:55;7.40;99.90
24103;DHT22;12278;53.058;9.028;2024-03-08T17:40:57;7.30;99.90
24103;DHT22;12278;53.058;9.028;2024-03-08T17:45:00;7.20;99.90
24103;DHT22;12278;53.058;9.028;2024-03-08T17:49:01;7.10;99.90
24103;DHT22;12278;53.058;9.028;2024-03-08T17:53:01;7.10;99.90
24103;DHT22;12278;53.058;9.028;2024-03-08T17:57:04;6.90;99.90
24103;DHT22;12278;53.058;9.028;2024-03-08T18:01:05;6.90;99.90
24103;DHT22;12278;53.058;9.028;2024-03-08T18:05:09;6.70;99.90
24103;DHT22;12278;53.058;9.028;2024-03-08T18:09:13;6.60;99.90
24103;DHT22;12278;53.058;9.028;2024-03-08T18:13:14;6.60;99.90
24103;DHT22;12278;53.058;9.028;2024-03-08T18:17:18;6.60;99.90
24103;DHT22;12278;53.058;9.028;2024-03-08T18:21:19;6.60;99.90
24103;DHT22;12278;53.058;9.028;2024-03-08T18:25:19;6.70;99.90
24103;DHT22;12278;53.058;9.028;2024-03-08T18:29:20;6.70;99.90
24103;DHT22;12278;53.058;9.028;2024-03-08T18:33:22;6.70;99.90
24103;DHT22;12278;53.058;9.028;2024-03-08T18:37:22;6.60;99.90
24103;DHT22;12278;53.058;9.028;2024-03-08T18:41:23;6.50;99.90
24103;DHT22;12278;53.058;9.028;2024-03-08T18:45:27;6.50;99.90
24103;DHT22;12278;53.058;9.028;2024-03-08T18:49:28;6.50;99.90
24103;DHT22;12278;53.058;9.028;2024-03-08T18:53:29;6.50;99.90
24103;DHT22;12278;53.058;9.028;2024-03-08T18:57:29;6.40;99.90
24103;DHT22;12278;53.058;9.028;2024-03-08T19:01:30;6.50;99.90
24103;DHT22;12278;53.058;9.028;2024-03-08T19:05:35;6.50;99.90
24103;DHT22;12278;53.058;9.028;2024-03-08T19:09:38;6.50;99.90
24103;DHT22;12278;53.058;9.028;2024-03-08T19:13:40;6.50;99.90
24103;DHT22;12278;53.058;9.028;2024-03-08T19:17:41;6.50;99.90
24103;DHT22;12278;53.058;9.028;2024-03-08T19:21:41;6.40;99.90
24103;DHT22;12278;53.058;9.028;2024-03-08T19:25:42;6.40;99.90
24103;DHT22;12278;53.058;9.028;2024-03-08T19:29:42;6.40;99.90
24103;DHT22;12278;53.058;9.028;2024-03-08T19:33:43;6.30;99.90
24103;DHT22;12278;53.058;9.028;2024-03-08T19:37:44;6.30;99.90
24103;DHT22;12278;53.058;9.028;2024-03-08T19:41:45;6.20;99.90
24103;DHT22;12278;53.058;9.028;2024-03-08T19:45:45;6.20;99.90
24103;DHT22;12278;53.058;9.028;2024-03-08T19:49:47;6.10;99.90
24103;DHT22;12278;53.058;9.028;2024-03-08T19:53:48;6.10;99.90
24103;DHT22;12278;53.058;9.028;2024-03-08T19:57:50;6.10;99.90
24103;DHT22;12278;53.058;9.028;2024-03-08T20:01:55;6.00;99.90
24103;DHT22;12278;53.058;9.028;2024-03-08T20:05:56;6.00;99.90
24103;DHT22;12278;53.058;9.028;2024-03-08T20:09:58;6.00;99.90
24103;DHT22;12278;53.058;9.028;2024-03-08T20:13:58;6.00;99.90
24103;DHT22;12278;53.058;9.028;2024-03-08T20:17:59;5.90;99.90
24103;DHT22;12278;53.058;9.028;2024-03-08T20:22:02;5.90;99.90
24103;DHT22;12278;53.058;9.028;2024-03-08T20:26:02;5.90;99.90
24103;DHT22;12278;53.058;9.028;2024-03-08T20:30:13;5.80;99.90
24103;DHT22;12278;53.058;9.028;2024-03-08T20:34:21;5.80;99.90
24103;DHT22;12278;53.058;9.028;2024-03-08T20:38:23;5.80;99.90
24103;DHT22;12278;53.058;9.028;2024-03-08T20:42:26;5.70;99.90
24103;DHT22;12278;53.058;9.028;2024-03-08T20:46:28;5.70;99.90
24103;DHT22;12278;53.058;9.028;2024-03-08T20:50:29;5.60;99.90
24103;DHT22;12278;53.058;9.028;2024-03-08T20:54:30;5.60;99.90
24103;DHT22;12278;53.058;9.028;2024-03-08T20:58:31;5.50;99.90
24103;DHT22;12278;53.058;9.028;2024-03-08T21:02:32;5.40;99.90
24103;DHT22;12278;53.058;9.028;2024-03-08T21:06:32;5.40;99.90
24103;DHT22;12278;53.058;9.028;2024-03-08T21:10:34;5.30;99.90
24103;DHT22;12278;53.058;9.028;2024-03-08T21:14:36;5.30;99.90
24103;DHT22;12278;53.058;9.028;2024-03-08T21:18:38;5.30;99.90
24103;DHT22;12278;53.058;9.028;2024-03-08T21:22:39;5.30;99.90
24103;DHT22;12278;53.058;9.028;2024-03-08T21:26:40;5.20;99.90
24103;DHT22;12278;53.058;9.028;2024-03-08T21:30:40;5.20;99.90
24103;DHT22;12278;53.058;9.028;2024-03-08T21:34:41;5.30;99.90
24103;DHT22;12278;53.058;9.028;2024-03-08T21:38:42;5.30;99.90
24103;DHT22;12278;53.058;9.028;2024-03-08T21:42:43;5.30;99.90
24103;DHT22;12278;53.058;9.028;2024-03-08T21:46:44;5.20;99.90
24103;DHT22;12278;53.058;9.028;2024-03-08T21:50:44;5.10;99.90
24103;DHT22;12278;53.058;9.028;2024-03-08T21:54:45;5.20;99.90
24103;DHT22;12278;53.058;9.028;2024-03-08T21:58:46;5.20;99.90
24103;DHT22;12278;53.058;9.028;2024-03-08T22:02:47;5.20;99.90
24103;DHT22;12278;53.058;9.028;2024-03-08T22:06:48;5.20;99.90
24103;DHT22;12278;53.058;9.028;2024-03-08T22:10:50;5.10;99.90
24103;DHT22;12278;53.058;9.028;2024-03-08T22:14:50;5.10;99.90
24103;DHT22;12278;53.058;9.028;2024-03-08T22:18:51;5.10;99.90
24103;DHT22;12278;53.058;9.028;2024-03-08T22:22:53;5.20;99.90
24103;DHT22;12278;53.058;9.028;2024-03-08T22:26:54;5.20;99.90
24103;DHT22;12278;53.058;9.028;2024-03-08T22:30:55;5.10;99.90
24103;DHT22;12278;53.058;9.028;2024-03-08T22:34:55;5.10;99.90
24103;DHT22;12278;53.058;9.028;2024-03-08T22:38:56;5.10;99.90
24103;DHT22;12278;53.058;9.028;2024-03-08T22:42:56;5.10;99.90
24103;DHT22;12278;53.058;9.028;2024-03-08T22:46:57;5.00;99.90
24103;DHT22;12278;53.058;9.028;2024-03-08T22:50:57;5.00;99.90
24103;DHT22;12278;53.058;9.028;2024-03-08T22:54:58;5.00;99.90
24103;DHT22;12278;53.058;9.028;2024-03-08T22:58:59;4.90;99.90
24103;DHT22;12278;53.058;9.028;2024-03-08T23:03:00;4.90;99.90
24103;DHT22;12278;53.058;9.028;2024-03-08T23:07:01;4.90;99.90
24103;DHT22;12278;53.058;9.028;2024-03-08T23:11:01;4.80;99.90
24103;DHT22;12278;53.058;9.028;2024-03-08T23:15:04;4.80;99.90
24103;DHT22;12278;53.058;9.028;2024-03-08T23:19:09;4.80;99.90
24103;DHT22;12278;53.058;9.028;2024-03-08T23:23:10;4.80;99.90
24103;DHT22;12278;53.058;9.028;2024-03-08T23:27:11;4.70;99.90
24103;DHT22;12278;53.058;9.028;2024-03-08T23:31:12;4.80;99.90
24103;DHT22;12278;53.058;9.028;2024-03-08T23:35:12;4.80;99.90
24103;DHT22;12278;53.058;9.028;2024-03-08T23:39:13;4.70;99.90
24103;DHT22;12278;53.058;9.028;2024-03-08T23:43:15;4.70;99.90
24103;DHT22;12278;53.058;9.028;2024-03-08T23:47:17;4.70;99.90
24103;DHT22;12278;53.058;9.028;2024-03-08T23:51:19;4.60;99.90
24103;DHT22;12278;53.058;9.028;2024-03-08T23:55:19;4.50;99.90
24103;DHT22;12278;53.058;9.028;2024-03-08T23:59:29;4.40;99.90
